Time;durP1;ratioP1;P1;durP2;ratioP2;P2;SDS_P1;SDS_P2;PMS_P1;PMS_P2;Temp;Humidity;BMP_temperature;BMP_pressure;BME280_temperature;BME280_humidity;BME280_pressure;Samples;Min_cycle;Max_cycle;Signal;HPM_P1;HPM_P2
2022/11/20 00:02:22;;;;;;;26.90;10.35;;;;;;;5.27;55.92;98307.97;4495859;31;20397;-84
2022/11/20 00:04:47;;;;;;;25.52;10.25;;;;;;;5.34;55.50;98311.19;4494336;31;20096;-85
2022/11/20 00:07:12;;;;;;;23.27;9.52;;;;;;;4.44;57.67;98312.06;4493805;31;20084;-83
2022/11/20 00:09:38;;;;;;;24.65;10.23;;;;;;;4.80;56.77;98305.50;4496493;31;20182;-83
2022/11/20 00:12:03;;;;;;;22.60;9.20;;;;;;;4.10;58.77;98305.47;4481648;31;20152;-84
2022/11/20 00:14:29;;;;;;;23.02;9.38;;;;;;;3.76;59.49;98302.37;4487398;31;20111;-83
2022/11/20 00:16:54;;;;;;;24.33;8.90;;;;;;;4.28;58.10;98306.56;4482287;32;20088;-84
2022/11/20 00:19:20;;;;;;;25.35;9.63;;;;;;;4.46;57.63;98302.44;4487285;31;20089;-86
2022/11/20 00:21:45;;;;;;;21.83;8.32;;;;;;;3.93;58.88;98311.28;4498457;31;20100;-86
2022/11/20 00:24:11;;;;;;;22.62;8.38;;;;;;;4.36;57.66;98300.22;4493965;31;20126;-85
2022/11/20 00:26:36;;;;;;;24.02;8.93;;;;;;;4.18;58.21;98310.41;4492658;31;20117;-85
2022/11/20 00:29:02;;;;;;;22.58;8.35;;;;;;;4.44;57.15;98316.41;4484747;31;20624;-88
2022/11/20 00:31:28;;;;;;;23.30;8.40;;;;;;;4.52;56.79;98302.19;4489181;31;20100;-83
2022/11/20 00:33:54;;;;;;;19.27;7.57;;;;;;;4.54;56.84;98302.16;4497617;31;20159;-81
2022/11/20 00:36:24;;;;;;;21.15;8.38;;;;;;;4.60;56.54;98299.28;4495018;31;20094;-82
2022/11/20 00:38:54;;;;;;;22.85;8.45;;;;;;;4.55;56.58;98308.19;4491577;31;20123;-83
2022/11/20 00:41:20;;;;;;;24.50;9.15;;;;;;;4.62;56.23;98328.78;4499906;31;20095;-83
2022/11/20 00:43:46;;;;;;;23.98;8.85;;;;;;;4.85;56.14;98340.09;4491648;31;20091;-83
2022/11/20 00:46:19;;;;;;;19.62;7.50;;;;;;;5.03;55.59;98339.37;4494931;31;20454;-83
2022/11/20 00:48:45;;;;;;;20.77;8.25;;;;;;;5.01;55.35;98322.09;4498311;31;20091;-82
2022/11/20 00:51:17;;;;;;;21.67;8.95;;;;;;;5.22;54.78;98313.38;4474930;31;20173;-82
2022/11/20 00:53:43;;;;;;;22.77;8.93;;;;;;;4.84;55.66;98313.12;4484490;32;20080;-81
2022/11/20 00:56:14;;;;;;;22.15;8.70;;;;;;;4.70;56.04;98312.84;4479003;31;20156;-82
2022/11/20 00:58:42;;;;;;;22.87;9.30;;;;;;;4.86;55.68;98308.72;4478509;32;20105;-82
2022/11/20 01:01:16;;;;;;;25.90;8.98;;;;;;;4.77;55.91;98309.09;4499645;31;20118;-82
2022/11/20 01:03:47;;;;;;;24.50;8.95;;;;;;;5.05;55.32;98306.22;4477097;31;20099;-81
2022/11/20 01:06:17;;;;;;;25.58;9.60;;;;;;;4.36;56.69;98306.28;4480255;32;20125;-82
2022/11/20 01:08:43;;;;;;;25.37;9.10;;;;;;;4.29;57.63;98321.31;4482977;31;20108;-82
2022/11/20 01:11:12;;;;;;;27.83;10.80;;;;;;;4.04;59.13;98326.56;4474762;31;20134;-82
2022/11/20 01:13:38;;;;;;;24.85;9.38;;;;;;;4.05;59.32;98319.56;4499017;31;20165;-83
2022/11/20 01:16:15;;;;;;;27.73;10.13;;;;;;;4.34;58.89;98321.97;4478486;31;20476;-83
2022/11/20 01:18:43;;;;;;;29.58;10.20;;;;;;;3.99;60.32;98318.03;4477762;32;20104;-82
2022/11/20 01:21:14;;;;;;;28.35;10.05;;;;;;;3.56;61.83;98324.75;4499069;31;20413;-83
2022/11/20 01:23:42;;;;;;;28.92;11.00;;;;;;;3.14;63.40;98328.69;4490694;31;20585;-83
2022/11/20 01:26:10;;;;;;;28.50;10.95;;;;;;;3.98;61.34;98324.16;4468107;32;20118;-82
2022/11/20 01:28:35;;;;;;;;;;;;;;;3.81;62.01;98329.97;4496461;31;20104;-81
2022/11/20 01:31:01;;;;;;;29.85;10.38;;;;;;;4.34;60.16;98323.72;4488124;31;20002;-81
2022/11/20 01:33:27;;;;;;;27.60;10.98;;;;;;;4.39;59.95;98319.22;4499000;31;20185;-82
2022/11/20 01:35:52;;;;;;;31.50;10.80;;;;;;;3.94;61.25;98317.37;4492306;31;20103;-82
2022/11/20 01:38:19;;;;;;;31.67;11.68;;;;;;;3.83;62.18;98309.91;4493984;31;20116;-81
2022/11/20 01:40:46;;;;;;;29.70;10.77;;;;;;;3.81;62.10;98285.66;4497995;31;20119;-82
2022/11/20 01:43:20;;;;;;;28.85;11.05;;;;;;;3.87;62.08;98295.03;4474287;31;20084;-82
2022/11/20 01:46:05;;;;;;;30.30;10.98;;;;;;;4.19;61.25;98295.63;4483730;32;20145;-82
2022/11/20 01:48:38;;;;;;;28.60;10.48;;;;;;;3.85;61.89;98292.47;4481169;31;20128;-82
2022/11/20 01:51:04;;;;;;;28.12;10.70;;;;;;;4.47;60.28;98298.91;4475219;32;20096;-82
2022/11/20 01:53:32;;;;;;;31.50;11.68;;;;;;;4.45;60.33;98292.06;4471461;32;20080;-82
2022/11/20 01:56:00;;;;;;;32.28;11.27;;;;;;;4.21;60.58;98273.81;4471947;32;20109;-83
2022/11/20 01:58:30;;;;;;;28.45;11.20;;;;;;;3.78;61.44;98277.94;4485736;32;20099;-82
2022/11/20 02:00:55;;;;;;;31.02;11.18;;;;;;;4.26;60.62;98273.63;4498657;31;20832;-82
2022/11/20 02:03:21;;;;;;;33.45;11.20;;;;;;;4.68;59.48;98278.13;4474293;31;20138;-82
2022/11/20 02:05:51;;;;;;;35.42;12.82;;;;;;;4.60;60.14;98278.44;4483161;32;20368;-83
2022/11/20 02:08:17;;;;;;;37.20;12.68;;;;;;;4.43;60.83;98289.50;4478990;31;20108;-82
2022/11/20 02:10:43;;;;;;;30.95;11.88;;;;;;;4.26;61.52;98284.91;4476981;32;20142;-82
2022/11/20 02:15:52;;;;;;;31.58;11.35;;;;;;;4.66;60.43;98280.78;4491429;31;20106;-83
2022/11/20 02:18:19;;;;;;;33.63;11.05;;;;;;;4.78;60.09;98282.06;4479371;32;20124;-82
2022/11/20 02:20:47;;;;;;;32.25;12.52;;;;;;;4.70;59.98;98268.47;4482176;31;20467;-82
2022/11/20 02:23:28;;;;;;;30.50;10.93;;;;;;;4.31;60.75;98271.72;4474715;31;20118;-82
2022/11/20 02:25:54;;;;;;;31.17;11.60;;;;;;;4.57;60.18;98282.91;4496136;31;20114;-82
2022/11/20 02:28:19;;;;;;;30.05;10.85;;;;;;;4.74;59.52;98280.50;4490108;31;20119;-82
2022/11/20 02:30:45;;;;;;;27.90;11.07;;;;;;;4.81;59.30;98283.69;4486690;31;20143;-83
2022/11/20 02:33:10;;;;;;;27.80;10.98;;;;;;;4.41;59.85;98283.50;4487688;31;20088;-82
2022/11/20 02:35:35;;;;;;;31.27;11.57;;;;;;;4.44;60.02;98275.56;4488936;31;20087;-83
2022/11/20 02:38:02;;;;;;;30.30;11.48;;;;;;;4.37;60.39;98257.59;4495591;31;20448;-83
2022/11/20 02:40:28;;;;;;;29.87;10.38;;;;;;;4.64;59.62;98260.91;4494649;31;20163;-83
2022/11/20 02:42:55;;;;;;;32.67;10.98;;;;;;;4.96;58.80;98257.00;4475299;32;20111;-82
2022/11/20 02:45:21;;;;;;;29.27;11.93;;;;;;;5.19;58.29;98261.28;4483617;31;20530;-82
2022/11/20 02:47:46;;;;;;;27.37;11.18;;;;;;;5.23;58.61;98264.63;4490709;31;20511;-82
2022/11/20 02:50:12;;;;;;;28.80;10.85;;;;;;;5.41;57.94;98257.75;4479390;32;20110;-82
2022/11/20 02:52:37;;;;;;;31.30;10.95;;;;;;;5.58;57.43;98259.66;4495821;31;20105;-83
2022/11/20 02:55:03;;;;;;;28.42;10.73;;;;;;;5.25;57.58;98262.78;4488253;31;20088;-83
2022/11/20 02:57:28;;;;;;;30.50;11.10;;;;;;;5.38;57.02;98266.59;4498164;31;20495;-81
2022/11/20 02:59:54;;;;;;;29.42;10.82;;;;;;;4.95;58.13;98270.97;4491199;31;20152;-82
2022/11/20 03:02:20;;;;;;;28.10;11.12;;;;;;;5.12;58.06;98265.06;4478155;31;20076;-82
2022/11/20 03:04:45;;;;;;;30.65;11.75;;;;;;;5.28;57.64;98257.44;4496701;31;20092;-81
2022/11/20 03:07:11;;;;;;;29.90;12.23;;;;;;;5.47;56.98;98247.91;4487506;31;20089;-82
2022/11/20 03:09:36;;;;;;;29.35;11.20;;;;;;;5.55;56.82;98244.97;4483123;32;20468;-82
2022/11/20 03:12:02;;;;;;;32.03;12.13;;;;;;;5.19;58.01;98243.00;4477076;31;20155;-82
2022/11/20 03:14:28;;;;;;;34.33;13.00;;;;;;;5.52;57.20;98245.09;4477899;32;20106;-82
2022/11/20 03:16:53;;;;;;;37.17;13.45;;;;;;;5.24;58.03;98250.66;4496745;31;20103;-82
2022/11/20 03:19:18;;;;;;;33.15;12.88;;;;;;;4.83;59.71;98253.16;4488151;31;20107;-81
2022/11/20 03:21:44;;;;;;;34.67;12.82;;;;;;;4.96;59.32;98257.00;4496064;31;20420;-81
2022/11/20 03:24:09;;;;;;;33.15;12.25;;;;;;;5.04;59.25;98251.47;4492552;31;20348;-81
2022/11/20 03:26:35;;;;;;;33.10;12.77;;;;;;;5.24;58.68;98263.72;4490644;31;20113;-81
2022/11/20 03:29:04;;;;;;;34.63;11.98;;;;;;;4.95;58.97;98262.28;4497818;31;20427;-81
2022/11/20 03:31:34;;;;;;;28.87;11.40;;;;;;;5.05;59.16;98274.91;4470648;31;20225;-82
2022/11/20 03:34:00;;;;;;;30.83;11.18;;;;;;;5.13;58.80;98274.59;4473988;32;20527;-81
2022/11/20 03:36:26;;;;;;;31.15;11.80;;;;;;;5.53;57.60;98261.66;4485003;31;20116;-81
2022/11/20 03:38:54;;;;;;;29.75;11.12;;;;;;;5.53;57.57;98262.50;4496468;31;20092;-82
2022/11/20 03:41:21;;;;;;;32.63;11.80;;;;;;;5.65;56.89;98258.50;4499163;31;20163;-81
2022/11/20 03:43:58;;;;;;;29.92;11.70;;;;;;;5.43;57.32;98248.97;4485539;32;20424;-82
2022/11/20 03:46:24;;;;;;;33.10;12.05;;;;;;;5.71;56.36;98246.00;4485452;32;20096;-82
2022/11/20 03:48:50;;;;;;;30.17;12.18;;;;;;;5.32;57.43;98249.41;4485506;32;20221;-84
2022/11/20 03:51:26;;;;;;;32.58;12.25;;;;;;;5.44;57.23;98262.87;4471246;32;20093;-84
2022/11/20 03:53:53;;;;;;;28.60;11.05;;;;;;;5.57;56.66;98248.37;4485713;32;20447;-87
2022/11/20 03:56:22;;;;;;;32.42;11.88;;;;;;;5.69;56.42;98250.44;4474417;32;20127;-85
2022/11/20 03:58:48;;;;;;;31.70;11.25;;;;;;;5.52;56.90;98245.09;4472685;32;20143;-86
2022/11/20 04:01:17;;;;;;;33.03;11.65;;;;;;;5.27;57.55;98250.50;4472332;32;20084;-84
2022/11/20 04:03:43;;;;;;;30.95;11.75;;;;;;;5.23;57.25;98252.41;4500352;31;20102;-85
2022/11/20 04:06:09;;;;;;;28.38;11.07;;;;;;;5.32;56.42;98243.34;4485914;32;20128;-85
2022/11/20 04:08:35;;;;;;;28.12;10.45;;;;;;;5.20;57.42;98246.47;4487240;32;20096;-85
2022/11/20 04:11:12;;;;;;;29.58;11.02;;;;;;;5.55;56.35;98244.97;4494681;31;20344;-86
2022/11/20 04:13:38;;;;;;;28.95;11.10;;;;;;;5.61;55.96;98236.88;4490573;31;20459;-85
2022/11/20 04:16:05;;;;;;;32.00;11.63;;;;;;;5.70;55.80;98240.87;4499546;31;20158;-86
2022/11/20 04:18:30;;;;;;;29.52;11.25;;;;;;;5.12;58.01;98231.13;4477935;31;20099;-86
2022/11/20 04:20:57;;;;;;;28.67;11.35;;;;;;;5.17;57.88;98223.09;4494409;31;20482;-84
2022/11/20 04:23:23;;;;;;;28.35;10.73;;;;;;;5.57;56.85;98213.56;4483546;31;20083;-83
2022/11/20 04:25:48;;;;;;;25.10;11.27;;;;;;;5.60;56.63;98201.22;4489536;31;20130;-83
2022/11/20 04:28:13;;;;;;;29.85;10.40;;;;;;;5.63;56.21;98215.91;4499558;31;20163;-84
2022/11/20 04:30:39;;;;;;;29.55;10.80;;;;;;;5.47;56.46;98216.56;4493299;31;20178;-84
2022/11/20 04:33:04;;;;;;;28.27;11.50;;;;;;;5.44;56.71;98211.47;4493366;31;20080;-84
2022/11/20 04:35:29;;;;;;;28.70;10.73;;;;;;;5.64;56.52;98214.97;4498444;31;20372;-84
2022/11/20 04:37:55;;;;;;;29.40;10.85;;;;;;;5.22;57.66;98208.09;4488867;31;20088;-83
2022/11/20 04:40:20;;;;;;;30.62;10.95;;;;;;;5.13;58.49;98218.00;4484152;32;20111;-83
2022/11/20 04:42:46;;;;;;;28.15;10.77;;;;;;;5.18;58.36;98211.75;4493156;31;20084;-83
2022/11/20 04:45:11;;;;;;;26.25;10.48;;;;;;;4.93;59.42;98216.22;4502655;31;20104;-84
2022/11/20 04:47:36;;;;;;;29.65;11.48;;;;;;;5.60;57.71;98208.19;4488519;31;20122;-85
2022/11/20 04:50:02;;;;;;;26.87;10.77;;;;;;;5.79;57.57;98203.00;4503004;31;20419;-85
2022/11/20 04:52:27;;;;;;;27.52;10.73;;;;;;;5.75;57.81;98197.06;4503186;31;20076;-84
2022/11/20 04:54:53;;;;;;;25.98;10.57;;;;;;;5.94;57.23;98202.31;4503104;31;20138;-84
2022/11/20 04:57:19;;;;;;;27.08;11.10;;;;;;;5.94;56.96;98191.03;4503212;31;20136;-85
2022/11/20 04:59:44;;;;;;;24.42;10.10;;;;;;;5.93;56.41;98184.97;4503128;31;20428;-85
2022/11/20 05:02:10;;;;;;;25.58;10.27;;;;;;;5.47;57.77;98187.84;4488868;31;20107;-85
2022/11/20 05:04:35;;;;;;;26.55;11.05;;;;;;;5.90;56.96;98182.47;4502790;31;20188;-85
2022/11/20 05:07:01;;;;;;;28.48;11.60;;;;;;;5.36;57.77;98184.00;4503014;31;20114;-85
2022/11/20 05:09:26;;;;;;;27.45;10.40;;;;;;;5.91;56.59;98192.88;4503073;31;20088;-84
2022/11/20 05:11:51;;;;;;;24.17;10.45;;;;;;;6.02;56.16;98196.78;4488624;31;20105;-85
2022/11/20 05:14:17;;;;;;;25.50;9.57;;;;;;;5.99;56.64;98196.91;4502923;31;20100;-85
2022/11/20 05:16:42;;;;;;;27.30;10.43;;;;;;;6.10;56.32;98197.28;4503099;31;20461;-85
2022/11/20 05:19:08;;;;;;;24.80;9.50;;;;;;;6.10;55.90;98198.12;4502981;31;20115;-85
2022/11/20 05:21:33;;;;;;;26.00;10.38;;;;;;;5.96;55.82;98187.44;4503050;31;20088;-85
2022/11/20 05:23:59;;;;;;;25.58;10.55;;;;;;;5.80;55.97;98182.03;4502928;31;20141;-86
2022/11/20 05:26:24;;;;;;;26.10;10.63;;;;;;;6.08;55.56;98186.91;4502854;31;20124;-86
2022/11/20 05:28:50;;;;;;;25.90;9.85;;;;;;;5.30;57.82;98183.34;4488520;31;20143;-86
2022/11/20 05:31:21;;;;;;;28.08;10.93;;;;;;;5.80;56.84;98181.19;4488504;31;20088;-86
2022/11/20 05:33:46;;;;;;;28.30;10.65;;;;;;;5.76;57.38;98167.41;4488556;31;20164;-87
2022/11/20 05:36:13;;;;;;;25.88;10.13;;;;;;;6.11;56.49;98157.13;4488570;31;20099;-86
2022/11/20 05:38:39;;;;;;;28.98;10.65;;;;;;;6.25;56.24;98159.94;4488707;31;20454;-83
2022/11/20 05:41:10;;;;;;;27.30;10.48;;;;;;;6.39;56.26;98158.44;4502909;31;20089;-83
2022/11/20 05:43:38;;;;;;;26.33;9.85;;;;;;;6.29;56.58;98168.50;4502833;31;20145;-84
2022/11/20 05:46:04;;;;;;;24.05;9.90;;;;;;;6.11;56.31;98172.81;4502877;31;20606;-83
2022/11/20 05:48:30;;;;;;;28.58;10.80;;;;;;;6.19;55.96;98170.69;4502807;31;20155;-83
2022/11/20 05:51:00;;;;;;;26.27;10.65;;;;;;;6.22;56.02;98169.69;4502818;31;20091;-82
2022/11/20 05:53:26;;;;;;;26.33;10.60;;;;;;;5.46;57.01;98187.91;4502814;31;20388;-82
2022/11/20 05:56:02;;;;;;;25.35;10.88;;;;;;;5.95;56.43;98177.91;4502808;31;20108;-82
2022/11/20 05:58:28;;;;;;;24.92;9.88;;;;;;;5.90;56.51;98182.47;4502785;31;20096;-81
2022/11/20 06:00:54;;;;;;;24.12;9.55;;;;;;;6.13;56.02;98186.69;4502924;31;20079;-82
2022/11/20 06:03:19;;;;;;;25.75;10.05;;;;;;;6.07;55.97;98189.59;4488571;31;20120;-82
2022/11/20 06:05:44;;;;;;;24.73;8.68;;;;;;;6.28;54.93;98185.13;4502773;31;20085;-82
2022/11/20 06:08:10;;;;;;;24.08;9.52;;;;;;;6.18;55.31;98192.56;4502847;31;20147;-84
2022/11/20 06:10:35;;;;;;;26.15;9.77;;;;;;;6.31;55.00;98198.03;4502944;31;20115;-84
2022/11/20 06:13:01;;;;;;;21.52;8.52;;;;;;;6.21;54.54;98205.47;4502328;31;20173;-85
2022/11/20 06:15:26;;;;;;;24.02;8.93;;;;;;;5.97;54.99;98212.69;4502308;31;20088;-84
2022/11/20 06:17:53;;;;;;;21.33;8.38;;;;;;;6.16;54.70;98194.41;4501701;31;20079;-85
2022/11/20 06:20:19;;;;;;;21.85;8.75;;;;;;;6.10;54.09;98195.53;4502476;31;20103;-86
2022/11/20 06:22:44;;;;;;;21.85;8.45;;;;;;;5.62;55.68;98203.75;4502582;31;20147;-84
2022/11/20 06:25:09;;;;;;;21.62;8.75;;;;;;;6.04;54.60;98184.47;4502311;31;20122;-84
2022/11/20 06:27:35;;;;;;;21.83;8.80;;;;;;;5.86;54.99;98191.38;4488433;31;20111;-83
2022/11/20 06:30:00;;;;;;;24.33;8.45;;;;;;;6.11;55.08;98188.53;4502502;31;20343;-84
2022/11/20 06:32:25;;;;;;;22.30;8.73;;;;;;;5.97;55.10;98194.37;4502614;31;20089;-84
2022/11/20 06:34:51;;;;;;;20.27;7.65;;;;;;;5.61;55.50;98191.62;4502627;31;20110;-84
2022/11/20 06:37:16;;;;;;;20.92;8.75;;;;;;;6.02;55.05;98197.63;4502460;31;20100;-82
2022/11/20 06:39:42;;;;;;;22.85;9.00;;;;;;;5.98;55.03;98210.91;4502543;31;20088;-82
2022/11/20 06:42:07;;;;;;;22.10;8.15;;;;;;;6.20;54.88;98224.72;4502492;31;20483;-83
2022/11/20 06:44:32;;;;;;;20.08;7.68;;;;;;;6.43;54.64;98222.78;4502523;31;20364;-83
2022/11/20 06:46:58;;;;;;;20.77;7.32;;;;;;;6.50;54.12;98224.19;4502150;31;20079;-81
2022/11/20 06:49:23;;;;;;;19.35;7.68;;;;;;;6.46;54.54;98233.13;4487974;31;20079;-81
2022/11/20 06:51:48;;;;;;;20.35;7.93;;;;;;;6.74;54.39;98232.66;4502344;31;20425;-81
2022/11/20 06:54:14;;;;;;;19.35;7.90;;;;;;;6.84;54.27;98226.06;4488007;31;20151;-81
2022/11/20 06:56:39;;;;;;;20.42;8.55;;;;;;;7.00;54.10;98228.78;4502312;31;20114;-82
2022/11/20 06:59:06;;;;;;;22.23;8.23;;;;;;;7.14;53.78;98225.47;4502239;31;20088;-82
2022/11/20 07:01:32;;;;;;;23.47;9.07;;;;;;;7.24;53.40;98210.13;4488049;31;20550;-81
2022/11/20 07:03:57;;;;;;;25.05;10.00;;;;;;;7.29;53.50;98208.16;4502174;31;20088;-81
2022/11/20 07:06:22;;;;;;;27.08;9.73;;;;;;;7.28;54.00;98209.94;4501981;31;20103;-81
2022/11/20 07:08:51;;;;;;;27.35;10.85;;;;;;;7.26;54.30;98213.53;4502274;31;20340;-82
2022/11/20 07:11:16;;;;;;;25.30;10.68;;;;;;;7.28;54.24;98207.31;4501677;31;20091;-82
2022/11/20 07:13:41;;;;;;;25.80;9.93;;;;;;;7.08;54.67;98212.69;4501539;31;20144;-82
2022/11/20 07:16:08;;;;;;;27.70;9.45;;;;;;;6.87;55.22;98206.72;4501799;31;20217;-82
2022/11/20 07:18:34;;;;;;;25.08;9.88;;;;;;;6.74;56.10;98224.81;4487456;31;20080;-82
2022/11/20 07:21:04;;;;;;;23.08;8.80;;;;;;;6.97;56.07;98228.91;4501806;31;20096;-82
2022/11/20 07:23:30;;;;;;;22.05;8.77;;;;;;;7.13;56.46;98233.41;4501699;31;20114;-83
2022/11/20 07:25:55;;;;;;;22.42;8.50;;;;;;;7.19;56.03;98243.59;4487245;31;20384;-82
2022/11/20 07:28:21;;;;;;;19.20;8.02;;;;;;;7.02;55.87;98234.78;4502304;31;20076;-82
2022/11/20 07:30:53;;;;;;;18.55;7.20;;;;;;;7.27;55.52;98238.81;4503656;31;20087;-82
2022/11/20 07:33:19;;;;;;;18.25;6.82;;;;;;;7.39;55.55;98227.72;4504113;31;20092;-81
2022/11/20 07:35:45;;;;;;;17.23;6.90;;;;;;;7.27;55.83;98234.41;4504033;31;20471;-82
2022/11/20 07:38:10;;;;;;;19.15;7.32;;;;;;;7.38;55.07;98240.87;4503972;31;20106;-82
2022/11/20 07:40:35;;;;;;;19.70;8.27;;;;;;;6.88;56.06;98250.31;4476420;31;20092;-82
2022/11/20 07:43:01;;;;;;;22.90;9.32;;;;;;;7.42;55.32;98235.44;4503916;31;20471;-83
2022/11/20 07:45:26;;;;;;;24.73;9.23;;;;;;;7.54;55.95;98239.19;4503959;31;20084;-82
2022/11/20 07:47:52;;;;;;;26.23;11.27;;;;;;;7.26;57.79;98244.97;4503909;31;20106;-82
2022/11/20 07:50:18;;;;;;;27.50;11.07;;;;;;;7.11;58.22;98240.47;4503983;31;20110;-83
2022/11/20 07:52:43;;;;;;;26.20;11.05;;;;;;;7.15;57.99;98237.66;4503955;31;20594;-83
2022/11/20 07:55:09;;;;;;;28.95;11.65;;;;;;;7.20;58.43;98240.03;4503934;31;20099;-83
2022/11/20 07:57:35;;;;;;;27.27;10.48;;;;;;;7.33;58.70;98245.53;4503795;31;20132;-83
2022/11/20 08:00:00;;;;;;;28.35;11.12;;;;;;;7.60;58.10;98240.66;4489421;31;20123;-83
2022/11/20 08:02:26;;;;;;;25.52;10.57;;;;;;;7.70;57.94;98233.16;4487810;32;20092;-83
2022/11/20 08:04:52;;;;;;;29.67;11.93;;;;;;;7.60;58.34;98238.88;4488055;32;20160;-85
2022/11/20 08:07:17;;;;;;;26.35;11.50;;;;;;;7.82;58.16;98235.13;4487528;32;20408;-84
2022/11/20 08:09:42;;;;;;;28.23;11.68;;;;;;;7.99;57.86;98221.97;4493747;31;20092;-84
2022/11/20 08:14:52;;;;;;;25.65;10.23;;;;;;;8.25;57.79;98204.84;4493527;31;20131;-83
2022/11/20 08:17:18;;;;;;;19.98;8.23;;;;;;;8.29;57.96;98218.66;4494594;31;20081;-85
2022/11/20 08:19:43;;;;;;;20.37;8.25;;;;;;;8.44;54.28;98220.47;4500819;31;20160;-85
2022/11/20 08:22:08;;;;;;;26.52;11.25;;;;;;;8.50;54.31;98227.16;4503494;31;20087;-85
2022/11/20 08:24:34;;;;;;;31.73;14.05;;;;;;;8.43;55.08;98233.69;4503219;31;20525;-84
2022/11/20 08:27:00;;;;;;;30.73;14.35;;;;;;;8.41;56.70;98228.50;4503273;31;20114;-84
2022/11/20 08:29:26;;;;;;;29.92;13.48;;;;;;;8.55;57.04;98225.13;4486163;31;20151;-83
2022/11/20 08:31:52;;;;;;;30.17;12.48;;;;;;;8.68;56.38;98217.41;4493377;31;20104;-81
2022/11/20 08:34:17;;;;;;;28.12;14.02;;;;;;;8.79;55.19;98207.16;4487544;32;20392;-84
2022/11/20 08:36:42;;;;;;;29.75;12.68;;;;;;;8.85;55.04;98211.22;4487547;32;20088;-82
2022/11/20 08:39:11;;;;;;;26.87;12.43;;;;;;;8.78;55.35;98215.97;4496612;31;20375;-82
2022/11/20 08:41:37;;;;;;;29.55;12.85;;;;;;;8.92;55.43;98233.56;4486901;31;20164;-83
2022/11/20 08:44:04;;;;;;;28.20;13.20;;;;;;;8.79;55.71;98230.78;4502156;31;20144;-83
2022/11/20 08:46:36;;;;;;;29.60;13.23;;;;;;;8.99;55.70;98226.19;4502443;31;20506;-83
2022/11/20 08:49:01;;;;;;;28.77;12.50;;;;;;;9.04;56.11;98225.00;4488552;31;20096;-83
2022/11/20 08:51:27;;;;;;;29.98;13.68;;;;;;;9.27;55.82;98230.69;4503533;31;20083;-83
2022/11/20 08:53:52;;;;;;;30.20;12.75;;;;;;;9.42;55.29;98227.16;4488969;31;20106;-83
2022/11/20 08:56:17;;;;;;;27.55;13.05;;;;;;;9.53;55.12;98225.69;4488771;31;20089;-83
2022/11/20 08:58:43;;;;;;;28.48;12.95;;;;;;;9.62;55.33;98233.88;4503400;31;20447;-83
2022/11/20 09:01:08;;;;;;;28.10;12.37;;;;;;;9.56;55.41;98238.66;4489000;31;20104;-83
2022/11/20 09:03:34;;;;;;;26.20;11.85;;;;;;;9.61;55.25;98240.06;4503389;31;20103;-83
2022/11/20 09:06:01;;;;;;;28.87;12.70;;;;;;;9.61;55.15;98245.31;4503350;31;20429;-83
2022/11/20 09:08:27;;;;;;;28.50;13.75;;;;;;;9.75;54.88;98241.03;4503348;31;20088;-83
2022/11/20 09:10:53;;;;;;;29.20;13.88;;;;;;;9.72;54.76;98249.13;4488794;31;20126;-83
2022/11/20 09:13:20;;;;;;;40.03;18.37;;;;;;;9.69;54.74;98249.28;4502954;31;20106;-83
2022/11/20 09:15:45;;;;;;;28.12;14.43;;;;;;;9.76;54.64;98253.25;4488789;31;20148;-83
2022/11/20 09:18:11;;;;;;;32.17;16.25;;;;;;;9.74;54.25;98248.09;4488606;31;20100;-83
2022/11/20 09:20:36;;;;;;;32.03;17.50;;;;;;;9.77;54.07;98252.31;4502892;31;20084;-83
2022/11/20 09:23:02;;;;;;;25.80;11.68;;;;;;;9.75;54.10;98259.44;4502993;31;20217;-83
2022/11/20 09:25:27;;;;;;;25.58;12.37;;;;;;;9.69;54.12;98260.66;4488552;31;20111;-83
2022/11/20 09:27:57;;;;;;;26.30;12.32;;;;;;;9.72;54.16;98260.47;4503030;31;20110;-83
2022/11/20 09:30:22;;;;;;;27.15;12.20;;;;;;;9.76;54.32;98253.25;4488552;31;20104;-83
2022/11/20 09:32:48;;;;;;;27.25;13.00;;;;;;;9.73;54.06;98253.44;4475581;31;20108;-83
2022/11/20 09:35:14;;;;;;;28.05;14.77;;;;;;;9.22;54.42;98245.91;4503215;31;20084;-83
2022/11/20 09:37:39;;;;;;;26.58;12.98;;;;;;;9.40;54.66;98250.06;4488797;31;20537;-83
2022/11/20 09:40:06;;;;;;;27.73;12.60;;;;;;;9.64;54.48;98247.78;4488865;31;20080;-83
2022/11/20 09:43:02;;;;;;;27.40;13.98;;;;;;;9.75;54.69;98241.88;4503086;31;20166;-83
2022/11/20 09:45:38;;;;;;;28.50;12.93;;;;;;;9.64;54.09;98252.22;4502867;31;20084;-82
2022/11/20 09:48:26;;;;;;;29.45;13.70;;;;;;;9.78;53.77;98246.13;4502866;31;20193;-83
2022/11/20 09:51:08;;;;;;;30.40;13.68;;;;;;;9.71;53.94;98245.63;4488463;31;20103;-83
2022/11/20 09:53:49;;;;;;;27.42;11.82;;;;;;;9.79;53.92;98242.53;4488008;31;20801;-83
2022/11/20 09:56:14;;;;;;;24.87;11.27;;;;;;;9.64;53.98;98237.28;4502715;31;20068;-83
2022/11/20 09:58:45;;;;;;;25.12;11.32;;;;;;;9.87;53.62;98234.19;4502629;31;20132;-83
2022/11/20 10:01:18;;;;;;;24.45;10.50;;;;;;;9.89;53.35;98238.44;4488392;31;20096;-82
2022/11/20 10:03:53;;;;;;;24.02;10.50;;;;;;;9.68;53.59;98230.03;4488389;31;20163;-83
2022/11/20 10:06:27;;;;;;;24.02;11.00;;;;;;;9.73;53.48;98230.59;4502510;31;20076;-83
2022/11/20 10:09:16;;;;;;;24.52;11.18;;;;;;;9.88;53.46;98231.47;4488491;31;20140;-83
2022/11/20 10:11:52;;;;;;;27.27;11.88;;;;;;;9.99;53.75;98220.31;4488400;31;20380;-83
2022/11/20 10:14:29;;;;;;;23.92;11.45;;;;;;;10.14;53.92;98207.97;4488499;31;20110;-83
2022/11/20 10:16:58;;;;;;;22.73;11.52;;;;;;;10.21;53.60;98211.91;4488260;31;20076;-83
2022/11/20 10:19:42;;;;;;;23.17;10.60;;;;;;;10.36;53.45;98203.09;4502470;31;20448;-83
2022/11/20 10:22:18;;;;;;;22.83;11.18;;;;;;;10.37;53.33;98196.88;4502492;31;20079;-83
2022/11/20 10:24:52;;;;;;;24.85;11.05;;;;;;;10.38;53.00;98189.84;4488126;31;20076;-83
2022/11/20 10:27:54;;;;;;;23.73;11.98;;;;;;;10.38;53.61;98197.72;4488137;31;20083;-83
2022/11/20 10:30:21;;;;;;;23.62;10.75;;;;;;;10.28;53.97;98183.44;4487938;31;20104;-83
2022/11/20 10:32:50;;;;;;;25.77;13.38;;;;;;;10.34;53.97;98183.91;4488290;31;20124;-83
2022/11/20 10:35:35;;;;;;;26.30;12.10;;;;;;;10.52;53.94;98181.88;4502445;31;20126;-83
2022/11/20 10:38:03;;;;;;;25.95;11.98;;;;;;;10.47;53.98;98188.38;4488166;31;20106;-83
2022/11/20 10:40:39;;;;;;;26.33;12.43;;;;;;;10.59;53.89;98185.81;4488231;31;20440;-83
2022/11/20 10:43:11;;;;;;;26.65;12.90;;;;;;;10.63;53.67;98175.94;4488215;31;20127;-83
2022/11/20 10:46:08;;;;;;;27.15;12.23;;;;;;;10.45;54.04;98182.38;4502089;31;20139;-83
2022/11/20 10:48:33;;;;;;;23.45;10.52;;;;;;;10.65;53.82;98178.47;4496535;31;20076;-83
2022/11/20 10:51:18;;;;;;;23.50;10.48;;;;;;;10.25;54.55;98179.19;4502458;31;20379;-83
2022/11/20 10:53:59;;;;;;;24.98;11.10;;;;;;;10.17;54.86;98182.28;4488179;31;20111;-83
2022/11/20 10:56:39;;;;;;;22.40;9.73;;;;;;;9.90;55.14;98178.75;4475031;31;20593;-83
2022/11/20 10:59:04;;;;;;;20.98;9.13;;;;;;;9.75;55.64;98189.25;4487770;31;20072;-83
2022/11/20 11:01:29;;;;;;;20.88;8.35;;;;;;;9.53;55.53;98194.97;4502004;31;20398;-84
2022/11/20 11:03:55;;;;;;;23.65;9.45;;;;;;;9.74;54.41;98197.28;4503154;31;20435;-85
2022/11/20 11:06:56;;;;;;;20.85;8.73;;;;;;;9.60;55.22;98193.69;4476737;31;20088;-85
2022/11/20 11:09:34;;;;;;;19.67;7.87;;;;;;;9.14;56.13;98199.03;4424004;32;20097;-85
2022/11/20 11:12:00;;;;;;;17.92;7.28;;;;;;;9.76;55.01;98209.37;4411374;32;20117;-85
2022/11/20 11:14:25;;;;;;;16.77;6.57;;;;;;;9.70;54.60;98201.87;4424057;32;20135;-85
2022/11/20 11:16:53;;;;;;;19.33;7.18;;;;;;;9.83;54.25;98207.22;4423766;32;20117;-85
2022/11/20 11:19:18;;;;;;;18.35;7.47;;;;;;;9.56;54.64;98217.59;4424014;32;20102;-85
2022/11/20 11:21:50;;;;;;;20.77;7.97;;;;;;;9.49;55.24;98221.56;4423870;32;20137;-85
2022/11/20 11:24:27;;;;;;;21.08;8.48;;;;;;;9.71;53.99;98210.59;4411077;32;20097;-85
2022/11/20 11:26:58;;;;;;;19.33;8.40;;;;;;;9.71;54.19;98224.59;4423612;32;20090;-85
2022/11/20 11:29:26;;;;;;;20.77;8.48;;;;;;;9.73;53.89;98214.81;4423619;32;20089;-85
2022/11/20 11:32:02;;;;;;;;;;;;;;;9.52;54.38;98221.38;4424020;32;20500;-85
2022/11/20 11:34:27;;;;;;;19.50;8.00;;;;;;;8.96;56.17;98224.59;4423764;32;20012;-85
2022/11/20 11:36:56;;;;;;;22.02;9.23;;;;;;;9.57;54.80;98221.94;4423640;32;20109;-85